createdAt,value
2019-04-01T00:02:15.789Z,43.00
2019-04-01T00:07:21.698Z,43.10
2019-04-01T00:12:27.400Z,43.00
2019-04-01T00:17:32.759Z,43.00
2019-04-01T00:22:38.459Z,43.00
2019-04-01T00:27:44.031Z,43.00
2019-04-01T00:32:50.050Z,42.90
2019-04-01T00:37:55.879Z,42.90
2019-04-01T00:43:13.249Z,42.80
2019-04-01T00:48:19.088Z,42.90
2019-04-01T00:53:24.831Z,42.90
2019-04-01T00:58:30.805Z,42.90
2019-04-01T01:03:37.832Z,43.00
2019-04-01T01:08:44.323Z,42.90
2019-04-01T01:13:50.459Z,42.90
2019-04-01T01:18:56.559Z,42.90
2019-04-01T01:24:02.550Z,42.80
2019-04-01T01:29:08.691Z,42.20
2019-04-01T01:34:14.729Z,42.40
2019-04-01T01:39:20.840Z,42.50
2019-04-01T01:44:26.699Z,42.60
2019-04-01T01:49:32.822Z,42.70
2019-04-01T01:54:39.320Z,42.70
2019-04-01T01:59:45.023Z,42.60
2019-04-01T02:04:51.160Z,42.60
2019-04-01T02:09:57.351Z,43.00
2019-04-01T02:15:03.153Z,42.60
2019-04-01T02:20:09.230Z,42.70
2019-04-01T02:25:15.210Z,42.70
2019-04-01T02:30:21.372Z,42.70
2019-04-01T02:35:26.759Z,42.60
2019-04-01T02:40:32.530Z,42.30
2019-04-01T02:45:38.254Z,42.30
2019-04-01T02:50:44.142Z,42.30
2019-04-01T02:55:49.960Z,42.30
2019-04-01T03:00:55.629Z,42.30
2019-04-01T03:06:01.381Z,42.20
2019-04-01T03:11:10.364Z,42.90
2019-04-01T03:16:14.619Z,42.20
2019-04-01T03:21:20.717Z,42.10
2019-04-01T03:26:26.211Z,42.20
2019-04-01T03:31:32.547Z,42.20
2019-04-01T03:36:38.320Z,42.20
2019-04-01T03:41:43.432Z,42.20
2019-04-01T03:46:49.475Z,42.20
2019-04-01T03:51:55.260Z,42.20
2019-04-01T03:57:00.391Z,42.20
2019-04-01T04:02:05.711Z,42.10
2019-04-01T04:07:11.628Z,42.20
2019-04-01T04:12:17.371Z,42.20
2019-04-01T04:17:22.969Z,42.20
2019-04-01T04:22:28.510Z,42.10
2019-04-01T04:27:34.757Z,42.10
2019-04-01T04:32:40.622Z,42.00
2019-04-01T04:37:46.930Z,42.10
2019-04-01T04:42:52.670Z,42.10
2019-04-01T04:47:58.763Z,42.00
2019-04-01T04:53:04.688Z,42.00
2019-04-01T04:58:10.380Z,42.70
2019-04-01T05:03:16.059Z,41.90
2019-04-01T05:08:22.009Z,41.90
2019-04-01T05:13:27.819Z,41.90
2019-04-01T05:18:33.820Z,41.90
2019-04-01T05:23:39.670Z,41.90
2019-04-01T05:28:45.459Z,42.00
2019-04-01T05:33:55.632Z,41.90
2019-04-01T05:38:58.869Z,41.90
2019-04-01T05:44:04.818Z,41.90
2019-04-01T05:49:11.160Z,42.00
2019-04-01T05:54:16.900Z,41.90
2019-04-01T05:59:23.528Z,41.90
2019-04-01T06:04:29.478Z,42.10
2019-04-01T06:09:35.649Z,41.90
2019-04-01T06:14:41.469Z,42.00
2019-04-01T06:19:47.131Z,42.20
2019-04-01T06:24:53.290Z,42.30
2019-04-01T06:29:59.360Z,42.20
2019-04-01T06:35:05.874Z,39.00
2019-04-01T06:40:11.689Z,39.10
2019-04-01T06:45:17.662Z,40.70
2019-04-01T06:50:23.497Z,40.90
2019-04-01T06:55:30.269Z,40.80
2019-04-01T07:00:36.129Z,41.00
2019-04-01T07:05:41.869Z,41.10
2019-04-01T07:10:47.775Z,40.90
2019-04-01T07:15:53.389Z,41.20
2019-04-01T07:20:59.187Z,41.40
2019-04-01T07:26:04.868Z,41.40
2019-04-01T07:31:10.759Z,41.40
2019-04-01T07:36:16.519Z,41.50
2019-04-01T07:41:22.689Z,41.00
2019-04-01T07:46:29.298Z,42.00
2019-04-01T07:51:38.275Z,41.30
2019-04-01T07:56:42.270Z,41.40
2019-04-01T08:01:48.388Z,41.30
2019-04-01T08:06:54.419Z,41.40
2019-04-01T08:12:00.139Z,41.40
2019-04-01T08:17:05.878Z,41.40
2019-04-01T08:22:11.812Z,41.40
2019-04-01T08:27:17.562Z,41.40
2019-04-01T08:32:23.359Z,41.50
2019-04-01T08:37:29.169Z,41.60
2019-04-01T08:42:34.739Z,41.50
2019-04-01T08:47:40.948Z,41.50
2019-04-01T08:52:46.659Z,41.40
2019-04-01T08:57:52.409Z,41.50
2019-04-01T09:02:58.529Z,41.40
2019-04-01T09:08:04.179Z,41.50
2019-04-01T09:13:09.889Z,41.50
2019-04-01T09:18:15.600Z,41.60
2019-04-01T09:23:21.373Z,41.90
2019-04-01T09:28:27.131Z,41.70
2019-04-01T09:33:33.050Z,41.10
2019-04-01T09:38:38.979Z,39.90
2019-04-01T09:43:44.770Z,40.40
2019-04-01T09:48:50.622Z,41.30
2019-04-01T09:53:56.808Z,41.60
2019-04-01T09:59:02.141Z,42.00
2019-04-01T10:04:08.284Z,42.00
2019-04-01T10:09:13.879Z,42.10
2019-04-01T10:14:19.899Z,42.00
2019-04-01T10:19:26.010Z,42.10
2019-04-01T10:24:31.872Z,42.10
2019-04-01T10:29:38.093Z,42.10
2019-04-01T10:34:46.772Z,42.50
2019-04-01T10:39:52.781Z,42.70
2019-04-01T10:44:58.389Z,42.60
2019-04-01T10:50:04.177Z,42.20
2019-04-01T10:55:10.109Z,42.50
2019-04-01T11:00:17.083Z,42.50
2019-04-01T11:05:22.958Z,42.10
2019-04-01T11:10:28.813Z,42.20
2019-04-01T11:15:34.568Z,42.10
2019-04-01T11:20:40.309Z,42.10
2019-04-01T11:25:46.080Z,42.10
2019-04-01T11:30:53.154Z,42.20
2019-04-01T11:35:59.080Z,42.40
2019-04-01T11:41:04.792Z,42.20
2019-04-01T11:46:12.516Z,41.60
2019-04-01T11:51:31.835Z,42.10
2019-04-01T11:56:26.841Z,42.20
2019-04-01T12:01:32.652Z,42.20
2019-04-01T12:06:38.520Z,42.20
2019-04-01T12:11:44.139Z,42.50
2019-04-01T12:16:50.128Z,42.80
2019-04-01T12:21:55.759Z,42.50
2019-04-01T12:27:01.499Z,42.30
2019-04-01T12:32:07.520Z,42.50
2019-04-01T12:37:13.559Z,42.60
2019-04-01T12:42:18.789Z,42.70
2019-04-01T12:47:24.788Z,42.20
2019-04-01T12:52:30.480Z,43.00
2019-04-01T12:57:36.149Z,42.90
2019-04-01T13:02:41.890Z,43.20
2019-04-01T13:07:47.678Z,43.40
2019-04-01T13:12:54.312Z,43.50
2019-04-01T13:18:00.380Z,43.90
2019-04-01T13:23:06.180Z,43.70
2019-04-01T13:28:12.108Z,43.50
2019-04-01T13:33:17.770Z,43.20
2019-04-01T13:38:23.458Z,43.20
2019-04-01T13:43:29.283Z,42.90
2019-04-01T13:48:35.129Z,43.60
2019-04-01T13:53:40.950Z,42.90
2019-04-01T13:58:46.778Z,42.90
2019-04-01T14:03:52.980Z,42.90
2019-04-01T14:09:00.420Z,42.90
2019-04-01T14:14:05.998Z,43.60
2019-04-01T14:19:12.289Z,43.00
2019-04-01T14:24:18.420Z,43.00
2019-04-01T14:29:24.429Z,43.60
2019-04-01T14:34:30.389Z,43.00
2019-04-01T14:39:36.660Z,42.60
2019-04-01T14:44:43.069Z,42.70
2019-04-01T14:49:49.849Z,43.00
2019-04-01T14:54:55.680Z,43.00
2019-04-01T15:00:01.467Z,43.10
2019-04-01T15:05:07.852Z,43.10
2019-04-01T15:10:15.031Z,43.20
2019-04-01T15:15:21.379Z,43.30
2019-04-01T15:20:27.969Z,43.40
2019-04-01T15:25:34.578Z,43.40
2019-04-01T15:30:40.572Z,43.50
2019-04-01T15:35:46.658Z,43.60
2019-04-01T15:40:52.189Z,43.90
2019-04-01T15:45:58.150Z,43.80
2019-04-01T15:51:04.190Z,43.80
2019-04-01T15:56:10.229Z,43.60
2019-04-01T16:01:16.034Z,43.70
2019-04-01T16:06:21.780Z,43.90
2019-04-01T16:11:27.935Z,43.80
2019-04-01T16:16:33.669Z,43.70
2019-04-01T16:21:39.369Z,43.70
2019-04-01T16:26:45.029Z,43.70
2019-04-01T16:31:51.049Z,43.60
2019-04-01T16:36:56.943Z,43.60
2019-04-01T16:42:03.149Z,43.80
2019-04-01T16:47:10.073Z,43.60
2019-04-01T16:52:15.892Z,43.60
2019-04-01T16:57:21.609Z,44.30
2019-04-01T17:02:27.843Z,43.60
2019-04-01T17:07:33.589Z,43.70
2019-04-01T17:12:39.349Z,43.80
2019-04-01T17:17:45.578Z,44.00
2019-04-01T17:22:51.354Z,43.70
2019-04-01T17:27:57.169Z,43.80
2019-04-01T17:33:03.169Z,43.80
2019-04-01T17:38:08.948Z,43.80
2019-04-01T17:43:16.271Z,43.90
2019-04-01T17:48:22.638Z,43.90
2019-04-01T17:53:28.450Z,44.00
2019-04-01T17:58:34.249Z,44.00
2019-04-01T18:03:40.041Z,44.10
2019-04-01T18:08:46.189Z,44.30
2019-04-01T18:13:52.074Z,44.10
2019-04-01T18:18:58.079Z,43.90
2019-04-01T18:24:03.760Z,43.90
2019-04-01T18:29:10.065Z,43.80
2019-04-01T18:34:16.271Z,44.10
2019-04-01T18:39:22.070Z,43.70
2019-04-01T18:44:27.907Z,43.50
2019-04-01T18:49:33.979Z,43.60
2019-04-01T18:54:39.929Z,43.60
2019-04-01T18:59:45.391Z,43.70
2019-04-01T19:04:51.298Z,43.70
2019-04-01T19:10:05.936Z,43.70
2019-04-01T19:15:04.832Z,43.60
2019-04-01T19:20:11.398Z,43.50
2019-04-01T19:25:17.571Z,43.60
2019-04-01T19:30:23.320Z,43.60
2019-04-01T19:35:29.179Z,43.60
2019-04-01T19:40:34.972Z,43.60
2019-04-01T19:45:41.450Z,43.60
2019-04-01T19:50:47.312Z,43.60
2019-04-01T19:55:53.038Z,43.60
2019-04-01T20:00:59.236Z,43.60
2019-04-01T20:06:07.768Z,43.70
2019-04-01T20:11:15.154Z,43.70
2019-04-01T20:16:21.880Z,43.70
2019-04-01T20:21:28.228Z,43.80
2019-04-01T20:26:34.220Z,43.90
2019-04-01T20:31:40.049Z,44.40
2019-04-01T20:36:46.191Z,43.80
2019-04-01T20:41:52.190Z,43.70
2019-04-01T20:46:59.249Z,43.70
2019-04-01T20:52:04.980Z,43.70
2019-04-01T20:57:10.980Z,43.60
2019-04-01T21:02:16.939Z,43.60
2019-04-01T21:07:22.810Z,43.70
2019-04-01T21:12:28.700Z,43.60
2019-04-01T21:17:34.630Z,43.60
2019-04-01T21:22:40.230Z,43.50
2019-04-01T21:27:46.149Z,43.50
2019-04-01T21:32:52.109Z,43.60
2019-04-01T21:37:58.009Z,43.50
2019-04-01T21:43:04.080Z,43.50
2019-04-01T21:48:10.625Z,43.50
2019-04-01T21:53:17.538Z,43.40
2019-04-01T21:58:23.162Z,43.40
2019-04-01T22:03:28.839Z,43.40
2019-04-01T22:08:35.207Z,43.40
2019-04-01T22:13:42.278Z,43.40
2019-04-01T22:18:47.898Z,43.40
2019-04-01T22:23:53.668Z,43.40
2019-04-01T22:28:59.400Z,43.30
2019-04-01T22:34:05.430Z,43.40
2019-04-01T22:39:11.159Z,43.30
2019-04-01T22:44:17.280Z,43.30
2019-04-01T22:49:22.979Z,43.30
2019-04-01T22:54:28.718Z,43.30
2019-04-01T22:59:34.340Z,43.30
2019-04-01T23:04:40.076Z,43.20
2019-04-01T23:09:45.579Z,43.20
2019-04-01T23:14:51.534Z,43.30
2019-04-01T23:19:57.348Z,43.20
2019-04-01T23:25:03.122Z,43.30
2019-04-01T23:30:10.282Z,43.10
2019-04-01T23:35:16.218Z,43.20
2019-04-01T23:40:22.079Z,43.10
2019-04-01T23:45:27.779Z,43.10
2019-04-01T23:50:33.819Z,43.10
2019-04-01T23:55:40.111Z,43.10
